sensor_id;sensor_type;location;lat;lon;timestamp;P1;durP1;ratioP1;P2;durP2;ratioP2
32780;SDS011;19136;47.032;15.502;2022-11-15T00:00:46;158.80;;;62.70;;
32780;SDS011;19136;47.032;15.502;2022-11-15T00:03:15;156.48;;;63.58;;
32780;SDS011;19136;47.032;15.502;2022-11-15T00:05:41;154.48;;;61.25;;
32780;SDS011;19136;47.032;15.502;2022-11-15T00:08:07;185.85;;;69.60;;
32780;SDS011;19136;47.032;15.502;2022-11-15T00:10:33;186.82;;;66.10;;
32780;SDS011;19136;47.032;15.502;2022-11-15T00:12:59;163.57;;;63.08;;
32780;SDS011;19136;47.032;15.502;2022-11-15T00:15:24;161.95;;;61.13;;
32780;SDS011;19136;47.032;15.502;2022-11-15T00:17:50;223.93;;;73.50;;
32780;SDS011;19136;47.032;15.502;2022-11-15T00:20:16;182.70;;;65.72;;
32780;SDS011;19136;47.032;15.502;2022-11-15T00:22:42;182.05;;;67.30;;
32780;SDS011;19136;47.032;15.502;2022-11-15T00:25:08;212.73;;;69.88;;
32780;SDS011;19136;47.032;15.502;2022-11-15T00:27:33;174.35;;;65.68;;
32780;SDS011;19136;47.032;15.502;2022-11-15T00:30:00;199.73;;;67.88;;
32780;SDS011;19136;47.032;15.502;2022-11-15T00:32:25;177.77;;;64.18;;
32780;SDS011;19136;47.032;15.502;2022-11-15T00:34:51;160.90;;;62.78;;
32780;SDS011;19136;47.032;15.502;2022-11-15T00:37:16;159.13;;;61.85;;
32780;SDS011;19136;47.032;15.502;2022-11-15T00:39:42;170.55;;;62.90;;
32780;SDS011;19136;47.032;15.502;2022-11-15T00:42:08;158.60;;;59.58;;
32780;SDS011;19136;47.032;15.502;2022-11-15T00:44:33;165.27;;;64.25;;
32780;SDS011;19136;47.032;15.502;2022-11-15T00:46:59;162.00;;;62.42;;
32780;SDS011;19136;47.032;15.502;2022-11-15T00:49:24;166.20;;;63.47;;
32780;SDS011;19136;47.032;15.502;2022-11-15T00:51:50;159.85;;;62.92;;
32780;SDS011;19136;47.032;15.502;2022-11-15T00:54:15;165.63;;;65.30;;
32780;SDS011;19136;47.032;15.502;2022-11-15T00:56:41;184.07;;;64.80;;
32780;SDS011;19136;47.032;15.502;2022-11-15T00:59:06;165.15;;;62.08;;
32780;SDS011;19136;47.032;15.502;2022-11-15T01:01:32;186.55;;;63.72;;
32780;SDS011;19136;47.032;15.502;2022-11-15T01:03:57;160.43;;;62.55;;
32780;SDS011;19136;47.032;15.502;2022-11-15T01:06:23;161.95;;;63.33;;
32780;SDS011;19136;47.032;15.502;2022-11-15T01:08:48;141.45;;;58.90;;
32780;SDS011;19136;47.032;15.502;2022-11-15T01:11:14;147.05;;;59.33;;
32780;SDS011;19136;47.032;15.502;2022-11-15T01:13:39;146.68;;;58.42;;
32780;SDS011;19136;47.032;15.502;2022-11-15T01:16:09;156.70;;;61.65;;
32780;SDS011;19136;47.032;15.502;2022-11-15T01:18:37;163.00;;;62.85;;
32780;SDS011;19136;47.032;15.502;2022-11-15T01:21:07;151.45;;;60.38;;
32780;SDS011;19136;47.032;15.502;2022-11-15T01:23:33;145.80;;;58.42;;
32780;SDS011;19136;47.032;15.502;2022-11-15T01:25:59;149.63;;;59.58;;
32780;SDS011;19136;47.032;15.502;2022-11-15T01:28:29;155.90;;;60.00;;
32780;SDS011;19136;47.032;15.502;2022-11-15T01:30:57;154.32;;;62.50;;
32780;SDS011;19136;47.032;15.502;2022-11-15T01:33:23;152.57;;;59.75;;
32780;SDS011;19136;47.032;15.502;2022-11-15T01:35:49;145.07;;;58.05;;
32780;SDS011;19136;47.032;15.502;2022-11-15T01:38:14;159.15;;;62.47;;
32780;SDS011;19136;47.032;15.502;2022-11-15T01:40:40;146.18;;;58.78;;
32780;SDS011;19136;47.032;15.502;2022-11-15T01:43:19;169.95;;;63.40;;
32780;SDS011;19136;47.032;15.502;2022-11-15T01:46:20;152.65;;;60.33;;
32780;SDS011;19136;47.032;15.502;2022-11-15T01:48:46;171.60;;;63.35;;
32780;SDS011;19136;47.032;15.502;2022-11-15T01:51:12;218.35;;;70.20;;
32780;SDS011;19136;47.032;15.502;2022-11-15T01:53:39;313.83;;;77.18;;
32780;SDS011;19136;47.032;15.502;2022-11-15T01:56:07;208.15;;;69.32;;
32780;SDS011;19136;47.032;15.502;2022-11-15T01:58:35;236.52;;;70.45;;
32780;SDS011;19136;47.032;15.502;2022-11-15T02:01:01;208.43;;;68.20;;
32780;SDS011;19136;47.032;15.502;2022-11-15T02:03:30;277.60;;;71.97;;
32780;SDS011;19136;47.032;15.502;2022-11-15T02:06:00;291.60;;;73.53;;
32780;SDS011;19136;47.032;15.502;2022-11-15T02:08:27;223.85;;;69.82;;
32780;SDS011;19136;47.032;15.502;2022-11-15T02:10:52;281.48;;;73.70;;
32780;SDS011;19136;47.032;15.502;2022-11-15T02:13:18;205.80;;;67.35;;
32780;SDS011;19136;47.032;15.502;2022-11-15T02:16:03;232.85;;;72.15;;
32780;SDS011;19136;47.032;15.502;2022-11-15T02:18:35;209.63;;;66.45;;
32780;SDS011;19136;47.032;15.502;2022-11-15T02:21:07;198.98;;;64.45;;
32780;SDS011;19136;47.032;15.502;2022-11-15T02:24:11;241.88;;;71.47;;
32780;SDS011;19136;47.032;15.502;2022-11-15T02:29:28;207.90;;;64.72;;
32780;SDS011;19136;47.032;15.502;2022-11-15T02:32:14;179.05;;;63.25;;
32780;SDS011;19136;47.032;15.502;2022-11-15T02:42:42;192.80;;;63.75;;
32780;SDS011;19136;47.032;15.502;2022-11-15T02:45:37;198.85;;;64.82;;
32780;SDS011;19136;47.032;15.502;2022-11-15T02:48:05;279.25;;;70.57;;
32780;SDS011;19136;47.032;15.502;2022-11-15T02:50:32;252.45;;;70.82;;
32780;SDS011;19136;47.032;15.502;2022-11-15T02:52:58;283.88;;;72.88;;
32780;SDS011;19136;47.032;15.502;2022-11-15T02:55:27;231.18;;;71.28;;
32780;SDS011;19136;47.032;15.502;2022-11-15T02:58:07;203.52;;;69.15;;
32780;SDS011;19136;47.032;15.502;2022-11-15T03:12:25;192.48;;;63.63;;
32780;SDS011;19136;47.032;15.502;2022-11-15T03:14:57;192.43;;;64.78;;
32780;SDS011;19136;47.032;15.502;2022-11-15T03:17:30;187.88;;;63.63;;
32780;SDS011;19136;47.032;15.502;2022-11-15T03:20:02;209.43;;;66.57;;
32780;SDS011;19136;47.032;15.502;2022-11-15T03:22:35;178.82;;;62.83;;
32780;SDS011;19136;47.032;15.502;2022-11-15T03:25:02;167.40;;;58.70;;
32780;SDS011;19136;47.032;15.502;2022-11-15T03:27:31;149.25;;;55.75;;
32780;SDS011;19136;47.032;15.502;2022-11-15T03:30:00;139.50;;;52.45;;
32780;SDS011;19136;47.032;15.502;2022-11-15T03:32:29;147.75;;;55.42;;
32780;SDS011;19136;47.032;15.502;2022-11-15T03:37:40;148.75;;;53.63;;
32780;SDS011;19136;47.032;15.502;2022-11-15T03:40:09;150.15;;;53.33;;
32780;SDS011;19136;47.032;15.502;2022-11-15T03:42:42;150.90;;;56.63;;
32780;SDS011;19136;47.032;15.502;2022-11-15T03:45:19;144.38;;;55.22;;
32780;SDS011;19136;47.032;15.502;2022-11-15T03:47:49;193.77;;;59.60;;
32780;SDS011;19136;47.032;15.502;2022-11-15T03:50:18;183.05;;;59.92;;
32780;SDS011;19136;47.032;15.502;2022-11-15T03:52:46;169.35;;;58.72;;
32780;SDS011;19136;47.032;15.502;2022-11-15T03:55:14;308.25;;;65.78;;
32780;SDS011;19136;47.032;15.502;2022-11-15T03:57:42;172.32;;;58.97;;
32780;SDS011;19136;47.032;15.502;2022-11-15T04:00:08;183.48;;;59.83;;
32780;SDS011;19136;47.032;15.502;2022-11-15T04:02:34;163.85;;;58.65;;
32780;SDS011;19136;47.032;15.502;2022-11-15T04:04:59;165.30;;;59.80;;
32780;SDS011;19136;47.032;15.502;2022-11-15T04:07:25;158.90;;;57.65;;
32780;SDS011;19136;47.032;15.502;2022-11-15T04:09:51;160.70;;;58.05;;
32780;SDS011;19136;47.032;15.502;2022-11-15T04:12:38;172.75;;;60.53;;
32780;SDS011;19136;47.032;15.502;2022-11-15T04:15:11;180.88;;;62.25;;
32780;SDS011;19136;47.032;15.502;2022-11-15T04:20:07;197.20;;;62.90;;
32780;SDS011;19136;47.032;15.502;2022-11-15T04:23:00;200.52;;;63.63;;
32780;SDS011;19136;47.032;15.502;2022-11-15T04:25:45;269.00;;;60.28;;
32780;SDS011;19136;47.032;15.502;2022-11-15T04:28:11;969.22;;;84.75;;
32780;SDS011;19136;47.032;15.502;2022-11-15T04:30:37;203.65;;;63.80;;
32780;SDS011;19136;47.032;15.502;2022-11-15T04:33:03;231.05;;;69.22;;
32780;SDS011;19136;47.032;15.502;2022-11-15T06:21:23;196.32;;;55.03;;
32780;SDS011;19136;47.032;15.502;2022-11-15T06:23:49;189.52;;;54.90;;
32780;SDS011;19136;47.032;15.502;2022-11-15T06:26:14;159.48;;;51.25;;
32780;SDS011;19136;47.032;15.502;2022-11-15T06:28:40;185.18;;;53.30;;
32780;SDS011;19136;47.032;15.502;2022-11-15T06:31:06;193.43;;;55.33;;
32780;SDS011;19136;47.032;15.502;2022-11-15T06:33:36;139.13;;;48.10;;
32780;SDS011;19136;47.032;15.502;2022-11-15T06:36:02;191.43;;;53.03;;
32780;SDS011;19136;47.032;15.502;2022-11-15T06:38:29;155.65;;;52.05;;
32780;SDS011;19136;47.032;15.502;2022-11-15T06:40:55;133.38;;;49.50;;
32780;SDS011;19136;47.032;15.502;2022-11-15T06:43:26;132.27;;;48.13;;
32780;SDS011;19136;47.032;15.502;2022-11-15T06:45:51;136.70;;;49.05;;
32780;SDS011;19136;47.032;15.502;2022-11-15T06:48:17;169.15;;;52.28;;
32780;SDS011;19136;47.032;15.502;2022-11-15T06:50:42;135.73;;;48.35;;
32780;SDS011;19136;47.032;15.502;2022-11-15T06:53:10;171.00;;;55.08;;
32780;SDS011;19136;47.032;15.502;2022-11-15T06:55:35;184.68;;;55.85;;
32780;SDS011;19136;47.032;15.502;2022-11-15T06:58:01;153.93;;;54.72;;
32780;SDS011;19136;47.032;15.502;2022-11-15T07:00:26;149.30;;;52.72;;
32780;SDS011;19136;47.032;15.502;2022-11-15T07:02:53;162.27;;;53.25;;
32780;SDS011;19136;47.032;15.502;2022-11-15T07:05:19;148.13;;;52.92;;
32780;SDS011;19136;47.032;15.502;2022-11-15T07:07:50;147.38;;;54.42;;
32780;SDS011;19136;47.032;15.502;2022-11-15T07:10:16;135.38;;;51.72;;
32780;SDS011;19136;47.032;15.502;2022-11-15T07:12:41;138.88;;;52.10;;
32780;SDS011;19136;47.032;15.502;2022-11-15T07:15:07;141.40;;;52.85;;
32780;SDS011;19136;47.032;15.502;2022-11-15T07:17:33;169.60;;;51.58;;
32780;SDS011;19136;47.032;15.502;2022-11-15T07:19:59;145.68;;;49.70;;
32780;SDS011;19136;47.032;15.502;2022-11-15T07:22:24;141.55;;;52.88;;
32780;SDS011;19136;47.032;15.502;2022-11-15T07:24:50;124.97;;;48.63;;
32780;SDS011;19136;47.032;15.502;2022-11-15T07:27:15;120.85;;;47.45;;
32780;SDS011;19136;47.032;15.502;2022-11-15T07:29:41;122.45;;;48.25;;
32780;SDS011;19136;47.032;15.502;2022-11-15T07:32:06;122.53;;;46.40;;
32780;SDS011;19136;47.032;15.502;2022-11-15T07:34:32;116.07;;;47.97;;
32780;SDS011;19136;47.032;15.502;2022-11-15T07:52:29;129.18;;;48.67;;
32780;SDS011;19136;47.032;15.502;2022-11-15T07:54:55;122.13;;;48.72;;
32780;SDS011;19136;47.032;15.502;2022-11-15T07:57:20;116.22;;;46.92;;
32780;SDS011;19136;47.032;15.502;2022-11-15T07:59:46;108.00;;;44.20;;
32780;SDS011;19136;47.032;15.502;2022-11-15T08:02:14;107.72;;;44.60;;
32780;SDS011;19136;47.032;15.502;2022-11-15T08:04:42;118.63;;;46.03;;
32780;SDS011;19136;47.032;15.502;2022-11-15T08:07:08;119.18;;;46.22;;
32780;SDS011;19136;47.032;15.502;2022-11-15T08:09:34;116.93;;;47.60;;
32780;SDS011;19136;47.032;15.502;2022-11-15T08:11:59;134.55;;;49.20;;
32780;SDS011;19136;47.032;15.502;2022-11-15T08:14:25;133.25;;;48.55;;
32780;SDS011;19136;47.032;15.502;2022-11-15T08:16:50;141.70;;;50.22;;
32780;SDS011;19136;47.032;15.502;2022-11-15T08:19:17;135.43;;;51.45;;
32780;SDS011;19136;47.032;15.502;2022-11-15T08:21:43;125.28;;;49.60;;
32780;SDS011;19136;47.032;15.502;2022-11-15T08:24:09;124.13;;;48.88;;
32780;SDS011;19136;47.032;15.502;2022-11-15T08:26:35;123.88;;;47.60;;
32780;SDS011;19136;47.032;15.502;2022-11-15T08:29:01;119.40;;;48.05;;
32780;SDS011;19136;47.032;15.502;2022-11-15T08:31:26;127.80;;;48.83;;
32780;SDS011;19136;47.032;15.502;2022-11-15T08:33:53;131.63;;;47.22;;
32780;SDS011;19136;47.032;15.502;2022-11-15T08:36:19;121.97;;;49.10;;
32780;SDS011;19136;47.032;15.502;2022-11-15T08:38:44;128.60;;;49.13;;
32780;SDS011;19136;47.032;15.502;2022-11-15T08:41:14;148.20;;;51.80;;
32780;SDS011;19136;47.032;15.502;2022-11-15T08:43:45;152.70;;;53.85;;
32780;SDS011;19136;47.032;15.502;2022-11-15T08:46:11;140.57;;;51.25;;
32780;SDS011;19136;47.032;15.502;2022-11-15T08:48:38;171.68;;;57.00;;
32780;SDS011;19136;47.032;15.502;2022-11-15T08:51:03;144.00;;;52.25;;
32780;SDS011;19136;47.032;15.502;2022-11-15T08:53:29;138.32;;;51.25;;
32780;SDS011;19136;47.032;15.502;2022-11-15T08:55:54;175.55;;;57.17;;
32780;SDS011;19136;47.032;15.502;2022-11-15T08:58:20;147.48;;;52.95;;
32780;SDS011;19136;47.032;15.502;2022-11-15T09:00:46;128.70;;;49.90;;
32780;SDS011;19136;47.032;15.502;2022-11-15T09:03:12;134.27;;;49.58;;
32780;SDS011;19136;47.032;15.502;2022-11-15T09:05:37;137.93;;;51.20;;
32780;SDS011;19136;47.032;15.502;2022-11-15T09:08:03;141.52;;;52.25;;
32780;SDS011;19136;47.032;15.502;2022-11-15T09:10:29;153.02;;;53.17;;
32780;SDS011;19136;47.032;15.502;2022-11-15T09:12:56;143.10;;;51.25;;
32780;SDS011;19136;47.032;15.502;2022-11-15T09:15:22;134.43;;;49.60;;
32780;SDS011;19136;47.032;15.502;2022-11-15T09:17:48;149.35;;;51.90;;
32780;SDS011;19136;47.032;15.502;2022-11-15T09:20:13;157.13;;;53.47;;
32780;SDS011;19136;47.032;15.502;2022-11-15T09:22:39;164.93;;;53.97;;
32780;SDS011;19136;47.032;15.502;2022-11-15T09:25:05;143.95;;;50.60;;
32780;SDS011;19136;47.032;15.502;2022-11-15T09:27:31;172.98;;;54.78;;
32780;SDS011;19136;47.032;15.502;2022-11-15T09:29:57;177.45;;;55.42;;
32780;SDS011;19136;47.032;15.502;2022-11-15T09:32:23;165.70;;;55.70;;
32780;SDS011;19136;47.032;15.502;2022-11-15T09:34:51;176.95;;;56.22;;
32780;SDS011;19136;47.032;15.502;2022-11-15T09:37:17;130.52;;;47.72;;
32780;SDS011;19136;47.032;15.502;2022-11-15T09:39:42;146.73;;;51.13;;
32780;SDS011;19136;47.032;15.502;2022-11-15T09:45:06;147.18;;;51.47;;
32780;SDS011;19136;47.032;15.502;2022-11-15T09:50:11;146.02;;;51.67;;
32780;SDS011;19136;47.032;15.502;2022-11-15T09:52:39;136.25;;;50.92;;
32780;SDS011;19136;47.032;15.502;2022-11-15T09:55:08;156.20;;;52.60;;
32780;SDS011;19136;47.032;15.502;2022-11-15T09:57:39;133.80;;;48.25;;
32780;SDS011;19136;47.032;15.502;2022-11-15T10:05:40;125.18;;;45.33;;
32780;SDS011;19136;47.032;15.502;2022-11-15T10:11:05;125.97;;;49.08;;
32780;SDS011;19136;47.032;15.502;2022-11-15T10:13:33;117.78;;;46.80;;
32780;SDS011;19136;47.032;15.502;2022-11-15T10:18:49;113.88;;;44.13;;
32780;SDS011;19136;47.032;15.502;2022-11-15T10:24:18;114.47;;;44.63;;
32780;SDS011;19136;47.032;15.502;2022-11-15T10:26:48;122.25;;;43.88;;
32780;SDS011;19136;47.032;15.502;2022-11-15T10:29:18;111.47;;;44.33;;
32780;SDS011;19136;47.032;15.502;2022-11-15T10:31:44;110.93;;;43.20;;
32780;SDS011;19136;47.032;15.502;2022-11-15T10:34:14;101.78;;;41.47;;
32780;SDS011;19136;47.032;15.502;2022-11-15T10:36:53;114.03;;;42.42;;
32780;SDS011;19136;47.032;15.502;2022-11-15T10:39:21;97.90;;;41.83;;
32780;SDS011;19136;47.032;15.502;2022-11-15T10:41:46;94.68;;;40.67;;
32780;SDS011;19136;47.032;15.502;2022-11-15T10:51:58;95.13;;;40.00;;
32780;SDS011;19136;47.032;15.502;2022-11-15T10:54:42;87.70;;;38.67;;
32780;SDS011;19136;47.032;15.502;2022-11-15T10:57:20;89.75;;;38.63;;
32780;SDS011;19136;47.032;15.502;2022-11-15T10:59:49;88.97;;;39.13;;
32780;SDS011;19136;47.032;15.502;2022-11-15T11:02:27;81.30;;;37.42;;
32780;SDS011;19136;47.032;15.502;2022-11-15T11:04:58;87.47;;;39.75;;
32780;SDS011;19136;47.032;15.502;2022-11-15T11:07:33;80.40;;;36.50;;
32780;SDS011;19136;47.032;15.502;2022-11-15T11:10:01;91.97;;;37.65;;
32780;SDS011;19136;47.032;15.502;2022-11-15T11:12:43;84.95;;;37.80;;
32780;SDS011;19136;47.032;15.502;2022-11-15T11:15:13;79.63;;;35.60;;
32780;SDS011;19136;47.032;15.502;2022-11-15T11:21:02;79.45;;;36.08;;
32780;SDS011;19136;47.032;15.502;2022-11-15T11:26:07;70.78;;;33.63;;
32780;SDS011;19136;47.032;15.502;2022-11-15T11:36:56;74.82;;;34.38;;
32780;SDS011;19136;47.032;15.502;2022-11-15T11:39:50;70.97;;;34.67;;
32780;SDS011;19136;47.032;15.502;2022-11-15T11:47:23;75.60;;;34.72;;
32780;SDS011;19136;47.032;15.502;2022-11-15T11:49:57;76.72;;;34.63;;
32780;SDS011;19136;47.032;15.502;2022-11-15T11:52:27;72.60;;;33.20;;
32780;SDS011;19136;47.032;15.502;2022-11-15T11:55:05;75.25;;;35.17;;
32780;SDS011;19136;47.032;15.502;2022-11-15T12:00:38;64.85;;;31.88;;
32780;SDS011;19136;47.032;15.502;2022-11-15T12:06:02;68.85;;;32.50;;
32780;SDS011;19136;47.032;15.502;2022-11-15T12:08:33;73.60;;;34.80;;
32780;SDS011;19136;47.032;15.502;2022-11-15T12:13:53;77.18;;;34.35;;
32780;SDS011;19136;47.032;15.502;2022-11-15T12:16:30;75.40;;;33.20;;
32780;SDS011;19136;47.032;15.502;2022-11-15T12:19:01;82.45;;;35.65;;
32780;SDS011;19136;47.032;15.502;2022-11-15T12:30:01;78.53;;;36.30;;
32780;SDS011;19136;47.032;15.502;2022-11-15T12:32:31;73.88;;;33.83;;
32780;SDS011;19136;47.032;15.502;2022-11-15T12:35:00;73.50;;;35.05;;
32780;SDS011;19136;47.032;15.502;2022-11-15T12:40:28;87.75;;;37.97;;
32780;SDS011;19136;47.032;15.502;2022-11-15T12:43:04;79.35;;;35.58;;
32780;SDS011;19136;47.032;15.502;2022-11-15T12:45:39;66.15;;;33.17;;
32780;SDS011;19136;47.032;15.502;2022-11-15T12:58:42;61.83;;;31.27;;
32780;SDS011;19136;47.032;15.502;2022-11-15T13:02:15;59.97;;;28.55;;
32780;SDS011;19136;47.032;15.502;2022-11-15T13:06:48;58.35;;;29.98;;
32780;SDS011;19136;47.032;15.502;2022-11-15T13:11:59;59.17;;;30.90;;
32780;SDS011;19136;47.032;15.502;2022-11-15T13:19:42;61.65;;;29.85;;
32780;SDS011;19136;47.032;15.502;2022-11-15T13:22:10;50.92;;;26.38;;
32780;SDS011;19136;47.032;15.502;2022-11-15T13:24:54;59.45;;;29.13;;
32780;SDS011;19136;47.032;15.502;2022-11-15T13:27:20;58.63;;;28.45;;
32780;SDS011;19136;47.032;15.502;2022-11-15T13:29:46;56.38;;;27.67;;
32780;SDS011;19136;47.032;15.502;2022-11-15T13:32:15;51.55;;;28.08;;
32780;SDS011;19136;47.032;15.502;2022-11-15T13:34:45;49.75;;;26.33;;
32780;SDS011;19136;47.032;15.502;2022-11-15T13:39:49;53.08;;;27.65;;
32780;SDS011;19136;47.032;15.502;2022-11-15T13:42:16;51.90;;;28.55;;
32780;SDS011;19136;47.032;15.502;2022-11-15T13:44:59;51.35;;;27.02;;
32780;SDS011;19136;47.032;15.502;2022-11-15T13:47:27;48.92;;;26.33;;
32780;SDS011;19136;47.032;15.502;2022-11-15T13:49:57;54.70;;;26.48;;
32780;SDS011;19136;47.032;15.502;2022-11-15T13:52:26;97.22;;;29.85;;
32780;SDS011;19136;47.032;15.502;2022-11-15T13:57:27;50.38;;;25.63;;
32780;SDS011;19136;47.032;15.502;2022-11-15T14:00:48;50.13;;;25.08;;
32780;SDS011;19136;47.032;15.502;2022-11-15T14:03:24;45.85;;;25.38;;
32780;SDS011;19136;47.032;15.502;2022-11-15T14:06:09;46.72;;;25.73;;
32780;SDS011;19136;47.032;15.502;2022-11-15T14:08:42;51.15;;;27.23;;
32780;SDS011;19136;47.032;15.502;2022-11-15T14:11:34;44.22;;;24.48;;
32780;SDS011;19136;47.032;15.502;2022-11-15T14:16:35;50.65;;;27.42;;
32780;SDS011;19136;47.032;15.502;2022-11-15T14:19:32;61.33;;;30.77;;
32780;SDS011;19136;47.032;15.502;2022-11-15T14:25:34;55.35;;;29.55;;
32780;SDS011;19136;47.032;15.502;2022-11-15T14:27:40;54.15;;;27.45;;
32780;SDS011;19136;47.032;15.502;2022-11-15T14:30:12;53.33;;;28.17;;
32780;SDS011;19136;47.032;15.502;2022-11-15T14:32:46;53.00;;;28.48;;
32780;SDS011;19136;47.032;15.502;2022-11-15T14:35:19;58.22;;;28.23;;
32780;SDS011;19136;47.032;15.502;2022-11-15T14:37:46;53.95;;;29.15;;
32780;SDS011;19136;47.032;15.502;2022-11-15T14:54:49;50.90;;;28.77;;
32780;SDS011;19136;47.032;15.502;2022-11-15T14:57:18;49.08;;;27.20;;
32780;SDS011;19136;47.032;15.502;2022-11-15T14:59:44;47.65;;;26.08;;
32780;SDS011;19136;47.032;15.502;2022-11-15T15:02:19;49.97;;;26.70;;
32780;SDS011;19136;47.032;15.502;2022-11-15T15:04:48;53.00;;;27.95;;
32780;SDS011;19136;47.032;15.502;2022-11-15T15:07:14;51.92;;;26.95;;
32780;SDS011;19136;47.032;15.502;2022-11-15T15:09:41;49.75;;;26.40;;
32780;SDS011;19136;47.032;15.502;2022-11-15T15:14:42;46.90;;;26.17;;
32780;SDS011;19136;47.032;15.502;2022-11-15T15:17:08;53.78;;;26.90;;
32780;SDS011;19136;47.032;15.502;2022-11-15T15:19:34;51.25;;;27.42;;
32780;SDS011;19136;47.032;15.502;2022-11-15T15:22:01;52.33;;;27.88;;
32780;SDS011;19136;47.032;15.502;2022-11-15T15:24:27;55.90;;;28.90;;
32780;SDS011;19136;47.032;15.502;2022-11-15T15:26:53;60.90;;;31.10;;
32780;SDS011;19136;47.032;15.502;2022-11-15T15:29:18;55.83;;;28.50;;
32780;SDS011;19136;47.032;15.502;2022-11-15T15:31:44;53.13;;;29.38;;
32780;SDS011;19136;47.032;15.502;2022-11-15T15:34:09;51.60;;;27.90;;
32780;SDS011;19136;47.032;15.502;2022-11-15T16:17:43;58.08;;;29.10;;
32780;SDS011;19136;47.032;15.502;2022-11-15T16:20:20;57.80;;;28.27;;
32780;SDS011;19136;47.032;15.502;2022-11-15T16:22:48;57.63;;;28.73;;
32780;SDS011;19136;47.032;15.502;2022-11-15T16:25:14;54.20;;;28.85;;
32780;SDS011;19136;47.032;15.502;2022-11-15T16:27:40;56.03;;;26.65;;
32780;SDS011;19136;47.032;15.502;2022-11-15T16:30:16;51.95;;;27.35;;
32780;SDS011;19136;47.032;15.502;2022-11-15T16:32:43;57.72;;;26.98;;
32780;SDS011;19136;47.032;15.502;2022-11-15T16:35:12;51.22;;;26.13;;
32780;SDS011;19136;47.032;15.502;2022-11-15T16:37:38;52.65;;;26.90;;
32780;SDS011;19136;47.032;15.502;2022-11-15T16:42:43;52.28;;;25.65;;
32780;SDS011;19136;47.032;15.502;2022-11-15T16:45:10;54.65;;;26.42;;
32780;SDS011;19136;47.032;15.502;2022-11-15T16:47:38;49.30;;;25.27;;
32780;SDS011;19136;47.032;15.502;2022-11-15T16:50:04;47.92;;;24.98;;
32780;SDS011;19136;47.032;15.502;2022-11-15T16:52:31;51.47;;;25.85;;
32780;SDS011;19136;47.032;15.502;2022-11-15T16:54:56;53.45;;;26.60;;
32780;SDS011;19136;47.032;15.502;2022-11-15T16:57:22;55.35;;;28.17;;
32780;SDS011;19136;47.032;15.502;2022-11-15T16:59:47;50.47;;;25.45;;
32780;SDS011;19136;47.032;15.502;2022-11-15T17:02:13;48.75;;;25.85;;
32780;SDS011;19136;47.032;15.502;2022-11-15T17:04:39;51.25;;;25.08;;
32780;SDS011;19136;47.032;15.502;2022-11-15T17:07:05;50.85;;;26.23;;
32780;SDS011;19136;47.032;15.502;2022-11-15T17:09:30;51.45;;;25.48;;
32780;SDS011;19136;47.032;15.502;2022-11-15T17:11:57;53.65;;;27.35;;
32780;SDS011;19136;47.032;15.502;2022-11-15T17:14:22;51.45;;;25.42;;
32780;SDS011;19136;47.032;15.502;2022-11-15T17:16:48;48.72;;;25.48;;
32780;SDS011;19136;47.032;15.502;2022-11-15T17:19:16;48.72;;;25.13;;
32780;SDS011;19136;47.032;15.502;2022-11-15T17:21:44;45.33;;;23.27;;
32780;SDS011;19136;47.032;15.502;2022-11-15T17:24:16;44.22;;;24.08;;
32780;SDS011;19136;47.032;15.502;2022-11-15T17:26:41;47.65;;;24.60;;
32780;SDS011;19136;47.032;15.502;2022-11-15T17:29:07;48.95;;;24.20;;
32780;SDS011;19136;47.032;15.502;2022-11-15T17:31:36;49.10;;;24.60;;
32780;SDS011;19136;47.032;15.502;2022-11-15T17:34:04;45.15;;;22.08;;
32780;SDS011;19136;47.032;15.502;2022-11-15T17:36:30;51.45;;;24.35;;
32780;SDS011;19136;47.032;15.502;2022-11-15T17:38:55;54.10;;;25.85;;
32780;SDS011;19136;47.032;15.502;2022-11-15T17:41:21;47.70;;;23.95;;
32780;SDS011;19136;47.032;15.502;2022-11-15T17:43:48;46.17;;;23.23;;
32780;SDS011;19136;47.032;15.502;2022-11-15T17:46:15;47.42;;;24.02;;
32780;SDS011;19136;47.032;15.502;2022-11-15T17:48:46;48.03;;;24.17;;
32780;SDS011;19136;47.032;15.502;2022-11-15T17:51:13;48.08;;;24.23;;
32780;SDS011;19136;47.032;15.502;2022-11-15T17:53:42;45.95;;;22.35;;
32780;SDS011;19136;47.032;15.502;2022-11-15T17:56:10;44.80;;;22.90;;
32780;SDS011;19136;47.032;15.502;2022-11-15T17:58:37;44.10;;;23.60;;
32780;SDS011;19136;47.032;15.502;2022-11-15T18:01:07;48.33;;;23.38;;
32780;SDS011;19136;47.032;15.502;2022-11-15T18:03:38;45.28;;;23.15;;
32780;SDS011;19136;47.032;15.502;2022-11-15T18:06:04;43.28;;;22.48;;
32780;SDS011;19136;47.032;15.502;2022-11-15T18:08:30;44.97;;;22.55;;
32780;SDS011;19136;47.032;15.502;2022-11-15T18:11:16;40.97;;;22.58;;
32780;SDS011;19136;47.032;15.502;2022-11-15T18:13:45;49.08;;;22.35;;
32780;SDS011;19136;47.032;15.502;2022-11-15T18:16:13;46.08;;;23.30;;
32780;SDS011;19136;47.032;15.502;2022-11-15T18:18:41;41.00;;;22.40;;
32780;SDS011;19136;47.032;15.502;2022-11-15T18:21:21;49.90;;;24.88;;
32780;SDS011;19136;47.032;15.502;2022-11-15T18:23:57;46.25;;;23.27;;
32780;SDS011;19136;47.032;15.502;2022-11-15T18:28:52;45.85;;;22.90;;
32780;SDS011;19136;47.032;15.502;2022-11-15T18:31:27;44.45;;;22.80;;
32780;SDS011;19136;47.032;15.502;2022-11-15T18:33:55;53.25;;;26.02;;
32780;SDS011;19136;47.032;15.502;2022-11-15T18:36:23;43.45;;;22.85;;
32780;SDS011;19136;47.032;15.502;2022-11-15T18:38:54;46.92;;;24.58;;
32780;SDS011;19136;47.032;15.502;2022-11-15T18:41:22;47.70;;;23.50;;
32780;SDS011;19136;47.032;15.502;2022-11-15T18:43:58;48.22;;;24.25;;
32780;SDS011;19136;47.032;15.502;2022-11-15T18:46:27;46.25;;;23.63;;
32780;SDS011;19136;47.032;15.502;2022-11-15T18:48:54;46.08;;;24.45;;
32780;SDS011;19136;47.032;15.502;2022-11-15T18:51:21;47.47;;;22.60;;
32780;SDS011;19136;47.032;15.502;2022-11-15T18:53:52;45.85;;;23.40;;
32780;SDS011;19136;47.032;15.502;2022-11-15T18:56:19;44.22;;;24.17;;
32780;SDS011;19136;47.032;15.502;2022-11-15T18:58:48;56.25;;;26.33;;
32780;SDS011;19136;47.032;15.502;2022-11-15T19:01:19;49.28;;;26.23;;
32780;SDS011;19136;47.032;15.502;2022-11-15T19:03:47;52.17;;;25.98;;
32780;SDS011;19136;47.032;15.502;2022-11-15T19:06:15;47.67;;;25.00;;
32780;SDS011;19136;47.032;15.502;2022-11-15T19:08:43;49.55;;;25.15;;
32780;SDS011;19136;47.032;15.502;2022-11-15T19:11:12;55.33;;;25.58;;
32780;SDS011;19136;47.032;15.502;2022-11-15T19:13:43;59.60;;;27.85;;
32780;SDS011;19136;47.032;15.502;2022-11-15T19:16:12;62.35;;;29.10;;
32780;SDS011;19136;47.032;15.502;2022-11-15T19:18:39;57.65;;;26.48;;
32780;SDS011;19136;47.032;15.502;2022-11-15T19:21:08;50.35;;;24.90;;
32780;SDS011;19136;47.032;15.502;2022-11-15T19:23:39;52.33;;;26.58;;